West Mansfield, Ohio
Current Conditions -  °F | °C
As of 6:30 PM on Saturday 20 Dec 2014 (Local Time) from KEDJ Reporting Station
Broken Clouds Broken Clouds  
Wind Chill: 28°   Ceiling: 2000
Heat Index: 28°   Visibility: 10mi
Dew Point: 25°   Wind: 0mph
Humidity: 86%   Direction: NA
Pressure: 30.27"   Gusts: NA
Location:  40.4°N, 83.55°W
Report Text: KEDJ 202330Z AUTO 00000KT 10SM BKN020 BKN024 BKN030 M02/M04 A3027 RMK AO1
Loading
Personal Weather Stations






























Interactive Weather Map New forecast layout! Learn more

10-Day Weather Forecast

Advertisements
Track Severe Weather on mobile